sensor_id;sensor_type;location;lat;lon;timestamp;P1;durP1;ratioP1;P2;durP2;ratioP2
36445;SDS011;22472;50.848;-1.216;2022-09-20T00:01:25;5.53;;;3.78;;
36445;SDS011;22472;50.848;-1.216;2022-09-20T00:03:54;6.32;;;3.80;;
36445;SDS011;22472;50.848;-1.216;2022-09-20T00:06:22;6.50;;;3.13;;
36445;SDS011;22472;50.848;-1.216;2022-09-20T00:08:51;5.57;;;3.30;;
36445;SDS011;22472;50.848;-1.216;2022-09-20T00:11:19;5.75;;;3.30;;
36445;SDS011;22472;50.848;-1.216;2022-09-20T00:13:48;5.72;;;3.00;;
36445;SDS011;22472;50.848;-1.216;2022-09-20T00:16:18;4.18;;;2.53;;
36445;SDS011;22472;50.848;-1.216;2022-09-20T00:21:15;7.40;;;3.00;;
36445;SDS011;22472;50.848;-1.216;2022-09-20T00:23:43;6.75;;;2.97;;
36445;SDS011;22472;50.848;-1.216;2022-09-20T00:26:10;5.60;;;3.05;;
36445;SDS011;22472;50.848;-1.216;2022-09-20T00:28:38;5.43;;;2.95;;
36445;SDS011;22472;50.848;-1.216;2022-09-20T00:31:06;4.60;;;2.78;;
36445;SDS011;22472;50.848;-1.216;2022-09-20T00:33:34;7.32;;;3.35;;
36445;SDS011;22472;50.848;-1.216;2022-09-20T00:36:19;4.45;;;3.15;;
36445;SDS011;22472;50.848;-1.216;2022-09-20T00:38:46;5.40;;;3.10;;
36445;SDS011;22472;50.848;-1.216;2022-09-20T00:41:13;6.18;;;3.28;;
36445;SDS011;22472;50.848;-1.216;2022-09-20T00:43:41;4.75;;;2.97;;
36445;SDS011;22472;50.848;-1.216;2022-09-20T00:46:14;5.72;;;2.70;;
36445;SDS011;22472;50.848;-1.216;2022-09-20T00:48:48;4.88;;;3.13;;
36445;SDS011;22472;50.848;-1.216;2022-09-20T00:51:16;4.40;;;2.78;;
36445;SDS011;22472;50.848;-1.216;2022-09-20T00:53:49;5.35;;;2.40;;
36445;SDS011;22472;50.848;-1.216;2022-09-20T00:56:18;4.00;;;2.78;;
36445;SDS011;22472;50.848;-1.216;2022-09-20T00:58:48;3.53;;;2.33;;
36445;SDS011;22472;50.848;-1.216;2022-09-20T01:01:23;4.85;;;2.50;;
36445;SDS011;22472;50.848;-1.216;2022-09-20T01:03:52;5.38;;;3.15;;
36445;SDS011;22472;50.848;-1.216;2022-09-20T01:06:19;3.70;;;2.67;;
36445;SDS011;22472;50.848;-1.216;2022-09-20T01:08:47;5.13;;;2.47;;
36445;SDS011;22472;50.848;-1.216;2022-09-20T01:11:18;5.10;;;2.85;;
36445;SDS011;22472;50.848;-1.216;2022-09-20T01:13:45;5.72;;;2.55;;
36445;SDS011;22472;50.848;-1.216;2022-09-20T01:16:12;5.20;;;2.50;;
36445;SDS011;22472;50.848;-1.216;2022-09-20T01:18:41;3.05;;;2.22;;
36445;SDS011;22472;50.848;-1.216;2022-09-20T01:21:11;4.90;;;2.22;;
36445;SDS011;22472;50.848;-1.216;2022-09-20T01:23:47;3.25;;;2.10;;
36445;SDS011;22472;50.848;-1.216;2022-09-20T01:26:37;4.72;;;2.35;;
36445;SDS011;22472;50.848;-1.216;2022-09-20T01:29:24;4.10;;;2.20;;
36445;SDS011;22472;50.848;-1.216;2022-09-20T01:32:12;4.18;;;2.10;;
36445;SDS011;22472;50.848;-1.216;2022-09-20T01:34:43;5.90;;;2.38;;
36445;SDS011;22472;50.848;-1.216;2022-09-20T01:37:13;4.18;;;2.20;;
36445;SDS011;22472;50.848;-1.216;2022-09-20T01:39:49;4.70;;;2.20;;
36445;SDS011;22472;50.848;-1.216;2022-09-20T01:42:24;3.58;;;2.20;;
36445;SDS011;22472;50.848;-1.216;2022-09-20T01:45:00;3.75;;;2.20;;
36445;SDS011;22472;50.848;-1.216;2022-09-20T01:47:34;4.25;;;2.10;;
36445;SDS011;22472;50.848;-1.216;2022-09-20T01:50:07;4.13;;;2.22;;
36445;SDS011;22472;50.848;-1.216;2022-09-20T01:52:47;4.22;;;2.33;;
36445;SDS011;22472;50.848;-1.216;2022-09-20T01:55:45;4.85;;;2.80;;
36445;SDS011;22472;50.848;-1.216;2022-09-20T02:01:50;3.95;;;2.30;;
36445;SDS011;22472;50.848;-1.216;2022-09-20T02:08:04;3.22;;;1.80;;
36445;SDS011;22472;50.848;-1.216;2022-09-20T02:16:32;4.18;;;2.30;;
36445;SDS011;22472;50.848;-1.216;2022-09-20T02:19:29;3.13;;;2.10;;
36445;SDS011;22472;50.848;-1.216;2022-09-20T02:22:19;4.53;;;2.20;;
36445;SDS011;22472;50.848;-1.216;2022-09-20T02:24:57;7.82;;;2.90;;
36445;SDS011;22472;50.848;-1.216;2022-09-20T02:27:36;5.68;;;2.30;;
36445;SDS011;22472;50.848;-1.216;2022-09-20T02:30:14;5.13;;;2.47;;
36445;SDS011;22472;50.848;-1.216;2022-09-20T02:33:06;4.13;;;2.50;;
36445;SDS011;22472;50.848;-1.216;2022-09-20T02:35:55;4.63;;;2.30;;
36445;SDS011;22472;50.848;-1.216;2022-09-20T02:38:38;4.18;;;2.22;;
36445;SDS011;22472;50.848;-1.216;2022-09-20T02:44:08;5.78;;;2.47;;
36445;SDS011;22472;50.848;-1.216;2022-09-20T02:46:44;4.00;;;2.30;;
36445;SDS011;22472;50.848;-1.216;2022-09-20T02:49:21;4.28;;;2.58;;
36445;SDS011;22472;50.848;-1.216;2022-09-20T02:51:59;3.95;;;2.60;;
36445;SDS011;22472;50.848;-1.216;2022-09-20T02:54:36;3.75;;;2.03;;
36445;SDS011;22472;50.848;-1.216;2022-09-20T02:57:13;3.45;;;2.25;;
36445;SDS011;22472;50.848;-1.216;2022-09-20T02:59:46;3.83;;;2.17;;
36445;SDS011;22472;50.848;-1.216;2022-09-20T03:02:21;4.05;;;2.38;;
36445;SDS011;22472;50.848;-1.216;2022-09-20T03:05:00;4.10;;;2.70;;
36445;SDS011;22472;50.848;-1.216;2022-09-20T03:07:38;5.63;;;2.45;;
36445;SDS011;22472;50.848;-1.216;2022-09-20T03:10:13;3.78;;;2.45;;
36445;SDS011;22472;50.848;-1.216;2022-09-20T03:12:52;7.30;;;2.22;;
36445;SDS011;22472;50.848;-1.216;2022-09-20T03:15:34;4.93;;;2.25;;
36445;SDS011;22472;50.848;-1.216;2022-09-20T03:18:14;5.82;;;2.53;;
36445;SDS011;22472;50.848;-1.216;2022-09-20T03:20:45;4.57;;;2.50;;
36445;SDS011;22472;50.848;-1.216;2022-09-20T03:23:30;4.60;;;2.35;;
36445;SDS011;22472;50.848;-1.216;2022-09-20T03:26:11;7.35;;;2.88;;
36445;SDS011;22472;50.848;-1.216;2022-09-20T03:28:51;4.35;;;2.65;;
36445;SDS011;22472;50.848;-1.216;2022-09-20T03:31:25;3.15;;;2.33;;
36445;SDS011;22472;50.848;-1.216;2022-09-20T03:34:08;4.78;;;2.85;;
36445;SDS011;22472;50.848;-1.216;2022-09-20T03:36:50;3.70;;;2.67;;
36445;SDS011;22472;50.848;-1.216;2022-09-20T03:42:21;4.07;;;2.35;;
36445;SDS011;22472;50.848;-1.216;2022-09-20T03:44:57;3.05;;;2.38;;
36445;SDS011;22472;50.848;-1.216;2022-09-20T03:47:46;3.10;;;2.25;;
36445;SDS011;22472;50.848;-1.216;2022-09-20T03:50:36;5.05;;;2.53;;
36445;SDS011;22472;50.848;-1.216;2022-09-20T03:53:36;4.07;;;2.60;;
36445;SDS011;22472;50.848;-1.216;2022-09-20T03:59:42;4.15;;;2.45;;
36445;SDS011;22472;50.848;-1.216;2022-09-20T04:02:24;5.40;;;2.80;;
36445;SDS011;22472;50.848;-1.216;2022-09-20T04:05:02;3.55;;;2.40;;
36445;SDS011;22472;50.848;-1.216;2022-09-20T04:07:37;7.00;;;2.80;;
36445;SDS011;22472;50.848;-1.216;2022-09-20T04:10:15;3.58;;;2.53;;
36445;SDS011;22472;50.848;-1.216;2022-09-20T04:12:57;3.97;;;2.60;;
36445;SDS011;22472;50.848;-1.216;2022-09-20T04:15:36;6.32;;;2.65;;
36445;SDS011;22472;50.848;-1.216;2022-09-20T04:18:15;5.18;;;2.70;;
36445;SDS011;22472;50.848;-1.216;2022-09-20T04:20:49;4.10;;;2.70;;
36445;SDS011;22472;50.848;-1.216;2022-09-20T04:23:25;4.47;;;2.63;;
36445;SDS011;22472;50.848;-1.216;2022-09-20T04:26:02;3.72;;;2.50;;
36445;SDS011;22472;50.848;-1.216;2022-09-20T04:28:33;4.93;;;2.47;;
36445;SDS011;22472;50.848;-1.216;2022-09-20T04:31:06;4.45;;;2.38;;
36445;SDS011;22472;50.848;-1.216;2022-09-20T04:33:41;4.97;;;2.60;;
36445;SDS011;22472;50.848;-1.216;2022-09-20T04:36:14;6.82;;;2.70;;
36445;SDS011;22472;50.848;-1.216;2022-09-20T04:38:56;3.60;;;2.80;;
36445;SDS011;22472;50.848;-1.216;2022-09-20T04:41:39;5.22;;;2.72;;
36445;SDS011;22472;50.848;-1.216;2022-09-20T04:44:51;3.92;;;2.67;;
36445;SDS011;22472;50.848;-1.216;2022-09-20T04:54:18;3.28;;;2.20;;
36445;SDS011;22472;50.848;-1.216;2022-09-20T05:00:07;4.13;;;2.70;;
36445;SDS011;22472;50.848;-1.216;2022-09-20T05:05:59;5.20;;;3.50;;
36445;SDS011;22472;50.848;-1.216;2022-09-20T05:11:51;6.60;;;3.30;;
36445;SDS011;22472;50.848;-1.216;2022-09-20T05:14:51;4.80;;;3.28;;
36445;SDS011;22472;50.848;-1.216;2022-09-20T05:17:43;4.70;;;2.78;;
36445;SDS011;22472;50.848;-1.216;2022-09-20T05:23:15;5.70;;;3.15;;
36445;SDS011;22472;50.848;-1.216;2022-09-20T05:26:16;5.88;;;3.70;;
36445;SDS011;22472;50.848;-1.216;2022-09-20T05:28:53;7.00;;;3.50;;
36445;SDS011;22472;50.848;-1.216;2022-09-20T05:31:31;3.63;;;2.78;;
36445;SDS011;22472;50.848;-1.216;2022-09-20T05:34:07;5.00;;;3.60;;
36445;SDS011;22472;50.848;-1.216;2022-09-20T05:36:45;4.32;;;2.83;;
36445;SDS011;22472;50.848;-1.216;2022-09-20T05:39:22;6.20;;;3.70;;
36445;SDS011;22472;50.848;-1.216;2022-09-20T05:41:59;4.47;;;2.63;;
36445;SDS011;22472;50.848;-1.216;2022-09-20T05:44:38;4.78;;;3.15;;
36445;SDS011;22472;50.848;-1.216;2022-09-20T05:47:22;4.35;;;2.67;;
36445;SDS011;22472;50.848;-1.216;2022-09-20T05:49:59;4.20;;;2.80;;
36445;SDS011;22472;50.848;-1.216;2022-09-20T05:52:51;4.15;;;2.63;;
36445;SDS011;22472;50.848;-1.216;2022-09-20T05:58:33;6.72;;;3.20;;
36445;SDS011;22472;50.848;-1.216;2022-09-20T06:01:13;5.65;;;3.60;;
36445;SDS011;22472;50.848;-1.216;2022-09-20T06:03:48;6.28;;;4.18;;
36445;SDS011;22472;50.848;-1.216;2022-09-20T06:06:21;8.80;;;4.63;;
36445;SDS011;22472;50.848;-1.216;2022-09-20T06:12:01;5.60;;;3.97;;
36445;SDS011;22472;50.848;-1.216;2022-09-20T06:14:42;8.05;;;5.00;;
36445;SDS011;22472;50.848;-1.216;2022-09-20T06:17:19;7.43;;;4.78;;
36445;SDS011;22472;50.848;-1.216;2022-09-20T06:19:55;6.75;;;4.40;;
36445;SDS011;22472;50.848;-1.216;2022-09-20T06:22:36;6.28;;;4.53;;
36445;SDS011;22472;50.848;-1.216;2022-09-20T06:25:11;8.02;;;4.85;;
36445;SDS011;22472;50.848;-1.216;2022-09-20T06:27:46;8.60;;;4.80;;
36445;SDS011;22472;50.848;-1.216;2022-09-20T06:30:19;10.10;;;6.13;;
36445;SDS011;22472;50.848;-1.216;2022-09-20T06:32:53;8.80;;;5.95;;
36445;SDS011;22472;50.848;-1.216;2022-09-20T06:35:24;10.68;;;6.53;;
36445;SDS011;22472;50.848;-1.216;2022-09-20T06:37:59;10.65;;;6.53;;
36445;SDS011;22472;50.848;-1.216;2022-09-20T06:40:54;10.00;;;7.15;;
36445;SDS011;22472;50.848;-1.216;2022-09-20T06:43:39;10.68;;;6.97;;
36445;SDS011;22472;50.848;-1.216;2022-09-20T06:46:07;9.32;;;6.68;;
36445;SDS011;22472;50.848;-1.216;2022-09-20T06:48:35;11.88;;;6.88;;
36445;SDS011;22472;50.848;-1.216;2022-09-20T06:51:05;12.38;;;7.13;;
36445;SDS011;22472;50.848;-1.216;2022-09-20T06:53:34;10.20;;;6.72;;
36445;SDS011;22472;50.848;-1.216;2022-09-20T06:58:33;8.65;;;6.30;;
36445;SDS011;22472;50.848;-1.216;2022-09-20T07:01:00;8.30;;;5.78;;
36445;SDS011;22472;50.848;-1.216;2022-09-20T07:03:27;8.75;;;5.97;;
36445;SDS011;22472;50.848;-1.216;2022-09-20T07:05:56;10.18;;;6.32;;
36445;SDS011;22472;50.848;-1.216;2022-09-20T07:08:26;8.50;;;6.13;;
36445;SDS011;22472;50.848;-1.216;2022-09-20T07:10:53;8.02;;;5.90;;
36445;SDS011;22472;50.848;-1.216;2022-09-20T07:13:20;8.95;;;6.15;;
36445;SDS011;22472;50.848;-1.216;2022-09-20T07:15:48;8.98;;;6.07;;
36445;SDS011;22472;50.848;-1.216;2022-09-20T07:18:15;9.20;;;5.57;;
36445;SDS011;22472;50.848;-1.216;2022-09-20T07:20:42;8.25;;;5.00;;
36445;SDS011;22472;50.848;-1.216;2022-09-20T07:23:09;7.90;;;5.03;;
36445;SDS011;22472;50.848;-1.216;2022-09-20T07:25:38;9.85;;;5.18;;
36445;SDS011;22472;50.848;-1.216;2022-09-20T07:28:05;8.15;;;4.60;;
36445;SDS011;22472;50.848;-1.216;2022-09-20T07:30:32;7.10;;;4.53;;
36445;SDS011;22472;50.848;-1.216;2022-09-20T07:32:59;7.60;;;4.43;;
36445;SDS011;22472;50.848;-1.216;2022-09-20T07:35:26;7.82;;;4.55;;
36445;SDS011;22472;50.848;-1.216;2022-09-20T07:37:56;7.72;;;4.22;;
36445;SDS011;22472;50.848;-1.216;2022-09-20T07:40:24;8.10;;;4.25;;
36445;SDS011;22472;50.848;-1.216;2022-09-20T07:42:54;8.85;;;4.07;;
36445;SDS011;22472;50.848;-1.216;2022-09-20T07:47:49;6.05;;;3.75;;
36445;SDS011;22472;50.848;-1.216;2022-09-20T07:50:16;6.25;;;3.35;;
36445;SDS011;22472;50.848;-1.216;2022-09-20T07:52:43;5.28;;;3.60;;
36445;SDS011;22472;50.848;-1.216;2022-09-20T07:55:10;6.28;;;3.88;;
36445;SDS011;22472;50.848;-1.216;2022-09-20T07:57:38;7.38;;;3.70;;
36445;SDS011;22472;50.848;-1.216;2022-09-20T08:00:07;5.22;;;3.75;;
36445;SDS011;22472;50.848;-1.216;2022-09-20T08:02:35;6.07;;;3.60;;
36445;SDS011;22472;50.848;-1.216;2022-09-20T08:05:02;8.07;;;3.92;;
36445;SDS011;22472;50.848;-1.216;2022-09-20T08:07:30;5.35;;;2.88;;
36445;SDS011;22472;50.848;-1.216;2022-09-20T08:09:57;4.60;;;3.10;;
36445;SDS011;22472;50.848;-1.216;2022-09-20T08:12:25;7.15;;;3.30;;
36445;SDS011;22472;50.848;-1.216;2022-09-20T08:14:52;5.40;;;3.20;;
36445;SDS011;22472;50.848;-1.216;2022-09-20T08:17:20;4.68;;;2.90;;
36445;SDS011;22472;50.848;-1.216;2022-09-20T08:19:47;4.72;;;2.78;;
36445;SDS011;22472;50.848;-1.216;2022-09-20T08:22:14;4.78;;;2.70;;
36445;SDS011;22472;50.848;-1.216;2022-09-20T08:24:41;6.35;;;2.60;;
36445;SDS011;22472;50.848;-1.216;2022-09-20T08:27:08;2.92;;;2.15;;
36445;SDS011;22472;50.848;-1.216;2022-09-20T08:29:35;4.30;;;2.35;;
36445;SDS011;22472;50.848;-1.216;2022-09-20T08:32:03;3.88;;;2.10;;
36445;SDS011;22472;50.848;-1.216;2022-09-20T08:34:31;3.83;;;2.17;;
36445;SDS011;22472;50.848;-1.216;2022-09-20T08:36:58;3.28;;;2.08;;
36445;SDS011;22472;50.848;-1.216;2022-09-20T08:39:25;3.05;;;2.03;;
36445;SDS011;22472;50.848;-1.216;2022-09-20T08:41:53;2.35;;;1.67;;
36445;SDS011;22472;50.848;-1.216;2022-09-20T08:44:23;5.05;;;2.10;;
36445;SDS011;22472;50.848;-1.216;2022-09-20T08:47:00;4.10;;;1.98;;
36445;SDS011;22472;50.848;-1.216;2022-09-20T08:49:32;3.00;;;1.63;;
36445;SDS011;22472;50.848;-1.216;2022-09-20T08:52:00;2.58;;;1.40;;
36445;SDS011;22472;50.848;-1.216;2022-09-20T08:54:30;3.60;;;1.70;;
36445;SDS011;22472;50.848;-1.216;2022-09-20T08:57:00;3.42;;;1.70;;
36445;SDS011;22472;50.848;-1.216;2022-09-20T08:59:31;3.20;;;1.73;;
36445;SDS011;22472;50.848;-1.216;2022-09-20T09:01:58;3.47;;;1.45;;
36445;SDS011;22472;50.848;-1.216;2022-09-20T09:04:30;2.72;;;1.10;;
36445;SDS011;22472;50.848;-1.216;2022-09-20T09:07:00;2.92;;;1.10;;
36445;SDS011;22472;50.848;-1.216;2022-09-20T09:09:28;2.47;;;0.95;;
36445;SDS011;22472;50.848;-1.216;2022-09-20T09:11:56;2.38;;;1.00;;
36445;SDS011;22472;50.848;-1.216;2022-09-20T09:14:24;1.50;;;0.80;;
36445;SDS011;22472;50.848;-1.216;2022-09-20T09:17:10;1.92;;;1.10;;
36445;SDS011;22472;50.848;-1.216;2022-09-20T09:19:43;3.15;;;1.00;;
36445;SDS011;22472;50.848;-1.216;2022-09-20T09:22:16;2.45;;;0.80;;
36445;SDS011;22472;50.848;-1.216;2022-09-20T09:27:53;2.20;;;0.88;;
36445;SDS011;22472;50.848;-1.216;2022-09-20T09:30:24;4.57;;;0.95;;
36445;SDS011;22472;50.848;-1.216;2022-09-20T09:32:53;2.08;;;0.70;;
36445;SDS011;22472;50.848;-1.216;2022-09-20T09:35:54;3.40;;;0.90;;
36445;SDS011;22472;50.848;-1.216;2022-09-20T09:38:24;1.60;;;0.50;;
36445;SDS011;22472;50.848;-1.216;2022-09-20T09:40:53;1.75;;;0.50;;
36445;SDS011;22472;50.848;-1.216;2022-09-20T09:43:23;4.07;;;0.55;;
36445;SDS011;22472;50.848;-1.216;2022-09-20T09:45:53;1.00;;;0.50;;
36445;SDS011;22472;50.848;-1.216;2022-09-20T09:48:23;1.92;;;0.43;;
36445;SDS011;22472;50.848;-1.216;2022-09-20T09:53:44;0.98;;;0.30;;
36445;SDS011;22472;50.848;-1.216;2022-09-20T09:56:19;1.08;;;0.30;;
36445;SDS011;22472;50.848;-1.216;2022-09-20T09:59:13;0.80;;;0.20;;
36445;SDS011;22472;50.848;-1.216;2022-09-20T10:02:08;1.05;;;0.30;;
36445;SDS011;22472;50.848;-1.216;2022-09-20T10:04:48;1.45;;;0.35;;
36445;SDS011;22472;50.848;-1.216;2022-09-20T10:07:27;1.35;;;0.40;;
36445;SDS011;22472;50.848;-1.216;2022-09-20T10:10:03;1.25;;;0.22;;
36445;SDS011;22472;50.848;-1.216;2022-09-20T10:12:39;1.95;;;0.40;;
36445;SDS011;22472;50.848;-1.216;2022-09-20T10:15:26;1.00;;;0.30;;
36445;SDS011;22472;50.848;-1.216;2022-09-20T10:18:16;0.90;;;0.38;;
36445;SDS011;22472;50.848;-1.216;2022-09-20T10:20:58;1.30;;;0.30;;
36445;SDS011;22472;50.848;-1.216;2022-09-20T10:23:46;0.80;;;0.20;;
36445;SDS011;22472;50.848;-1.216;2022-09-20T10:26:29;0.98;;;0.30;;
36445;SDS011;22472;50.848;-1.216;2022-09-20T10:29:07;0.73;;;0.20;;
36445;SDS011;22472;50.848;-1.216;2022-09-20T10:31:44;0.70;;;0.20;;
36445;SDS011;22472;50.848;-1.216;2022-09-20T10:34:32;1.48;;;0.30;;
36445;SDS011;22472;50.848;-1.216;2022-09-20T10:37:14;0.65;;;0.20;;
36445;SDS011;22472;50.848;-1.216;2022-09-20T10:39:51;1.42;;;0.20;;
36445;SDS011;22472;50.848;-1.216;2022-09-20T10:42:27;2.00;;;0.30;;
36445;SDS011;22472;50.848;-1.216;2022-09-20T10:45:23;2.72;;;0.30;;
36445;SDS011;22472;50.848;-1.216;2022-09-20T10:47:58;1.98;;;0.20;;
36445;SDS011;22472;50.848;-1.216;2022-09-20T10:50:29;0.80;;;0.20;;
36445;SDS011;22472;50.848;-1.216;2022-09-20T10:53:09;0.77;;;0.30;;
36445;SDS011;22472;50.848;-1.216;2022-09-20T10:55:53;0.45;;;0.20;;
36445;SDS011;22472;50.848;-1.216;2022-09-20T10:58:44;2.95;;;0.20;;
36445;SDS011;22472;50.848;-1.216;2022-09-20T11:01:24;0.82;;;0.10;;
36445;SDS011;22472;50.848;-1.216;2022-09-20T11:04:11;0.50;;;0.20;;
36445;SDS011;22472;50.848;-1.216;2022-09-20T11:06:54;0.77;;;0.20;;
36445;SDS011;22472;50.848;-1.216;2022-09-20T11:09:31;1.60;;;0.20;;
36445;SDS011;22472;50.848;-1.216;2022-09-20T11:12:05;1.27;;;0.10;;
36445;SDS011;22472;50.848;-1.216;2022-09-20T11:14:39;1.00;;;0.20;;
36445;SDS011;22472;50.848;-1.216;2022-09-20T11:17:11;0.70;;;0.20;;
36445;SDS011;22472;50.848;-1.216;2022-09-20T11:19:46;0.65;;;0.20;;
36445;SDS011;22472;50.848;-1.216;2022-09-20T11:22:18;0.55;;;0.17;;
36445;SDS011;22472;50.848;-1.216;2022-09-20T11:24:49;0.60;;;0.20;;
36445;SDS011;22472;50.848;-1.216;2022-09-20T11:27:21;2.65;;;0.17;;
36445;SDS011;22472;50.848;-1.216;2022-09-20T11:29:55;0.93;;;0.10;;
36445;SDS011;22472;50.848;-1.216;2022-09-20T11:32:29;2.40;;;0.22;;
36445;SDS011;22472;50.848;-1.216;2022-09-20T11:35:01;0.95;;;0.20;;
36445;SDS011;22472;50.848;-1.216;2022-09-20T11:37:36;1.15;;;0.10;;
36445;SDS011;22472;50.848;-1.216;2022-09-20T11:40:10;0.65;;;0.20;;
36445;SDS011;22472;50.848;-1.216;2022-09-20T11:42:42;1.48;;;0.20;;
36445;SDS011;22472;50.848;-1.216;2022-09-20T11:45:10;0.40;;;0.10;;
36445;SDS011;22472;50.848;-1.216;2022-09-20T11:47:38;1.13;;;0.47;;
36445;SDS011;22472;50.848;-1.216;2022-09-20T11:50:25;1.55;;;0.30;;
36445;SDS011;22472;50.848;-1.216;2022-09-20T11:53:15;1.08;;;0.50;;
36445;SDS011;22472;50.848;-1.216;2022-09-20T11:55:58;1.15;;;0.70;;
36445;SDS011;22472;50.848;-1.216;2022-09-20T11:58:30;1.60;;;0.50;;
36445;SDS011;22472;50.848;-1.216;2022-09-20T12:01:12;2.45;;;0.55;;
36445;SDS011;22472;50.848;-1.216;2022-09-20T12:03:41;4.35;;;0.90;;
36445;SDS011;22472;50.848;-1.216;2022-09-20T12:06:20;1.27;;;0.63;;
36445;SDS011;22472;50.848;-1.216;2022-09-20T12:08:51;1.48;;;0.80;;
36445;SDS011;22472;50.848;-1.216;2022-09-20T12:11:25;1.77;;;0.70;;
36445;SDS011;22472;50.848;-1.216;2022-09-20T12:13:58;1.60;;;0.90;;
36445;SDS011;22472;50.848;-1.216;2022-09-20T12:16:35;1.27;;;0.73;;
36445;SDS011;22472;50.848;-1.216;2022-09-20T12:19:05;3.83;;;1.10;;
36445;SDS011;22472;50.848;-1.216;2022-09-20T12:24:39;2.20;;;0.73;;
36445;SDS011;22472;50.848;-1.216;2022-09-20T12:27:19;2.53;;;0.57;;
36445;SDS011;22472;50.848;-1.216;2022-09-20T12:29:51;0.90;;;0.40;;
36445;SDS011;22472;50.848;-1.216;2022-09-20T12:38:32;1.75;;;0.60;;
36445;SDS011;22472;50.848;-1.216;2022-09-20T12:41:12;1.00;;;0.55;;
36445;SDS011;22472;50.848;-1.216;2022-09-20T12:44:01;0.93;;;0.30;;
36445;SDS011;22472;50.848;-1.216;2022-09-20T12:46:43;2.15;;;0.60;;
36445;SDS011;22472;50.848;-1.216;2022-09-20T12:49:22;1.63;;;0.40;;
36445;SDS011;22472;50.848;-1.216;2022-09-20T12:52:27;1.23;;;0.30;;
36445;SDS011;22472;50.848;-1.216;2022-09-20T13:00:44;1.45;;;0.40;;
36445;SDS011;22472;50.848;-1.216;2022-09-20T13:03:25;1.75;;;0.43;;
36445;SDS011;22472;50.848;-1.216;2022-09-20T13:08:50;1.63;;;0.30;;
36445;SDS011;22472;50.848;-1.216;2022-09-20T13:11:29;1.92;;;0.30;;
36445;SDS011;22472;50.848;-1.216;2022-09-20T13:14:00;2.10;;;0.35;;
36445;SDS011;22472;50.848;-1.216;2022-09-20T13:16:43;1.23;;;0.40;;
36445;SDS011;22472;50.848;-1.216;2022-09-20T13:19:17;1.88;;;0.40;;
36445;SDS011;22472;50.848;-1.216;2022-09-20T13:21:49;1.33;;;0.50;;
36445;SDS011;22472;50.848;-1.216;2022-09-20T13:24:21;0.82;;;0.30;;
36445;SDS011;22472;50.848;-1.216;2022-09-20T13:26:51;2.15;;;0.30;;
36445;SDS011;22472;50.848;-1.216;2022-09-20T13:29:22;0.98;;;0.30;;
36445;SDS011;22472;50.848;-1.216;2022-09-20T13:31:55;1.70;;;0.32;;
36445;SDS011;22472;50.848;-1.216;2022-09-20T13:34:41;1.60;;;0.20;;
36445;SDS011;22472;50.848;-1.216;2022-09-20T13:37:17;1.27;;;0.20;;
36445;SDS011;22472;50.848;-1.216;2022-09-20T13:39:51;0.93;;;0.20;;
36445;SDS011;22472;50.848;-1.216;2022-09-20T13:42:22;0.80;;;0.30;;
36445;SDS011;22472;50.848;-1.216;2022-09-20T13:44:52;0.73;;;0.20;;
36445;SDS011;22472;50.848;-1.216;2022-09-20T13:47:23;3.03;;;0.40;;
36445;SDS011;22472;50.848;-1.216;2022-09-20T13:49:53;1.30;;;0.40;;
36445;SDS011;22472;50.848;-1.216;2022-09-20T13:52:27;1.33;;;0.38;;
36445;SDS011;22472;50.848;-1.216;2022-09-20T13:54:55;1.67;;;0.32;;
36445;SDS011;22472;50.848;-1.216;2022-09-20T13:57:24;0.90;;;0.30;;
36445;SDS011;22472;50.848;-1.216;2022-09-20T13:59:53;1.95;;;0.20;;
36445;SDS011;22472;50.848;-1.216;2022-09-20T14:02:23;1.13;;;0.20;;
36445;SDS011;22472;50.848;-1.216;2022-09-20T14:04:54;1.40;;;0.40;;
36445;SDS011;22472;50.848;-1.216;2022-09-20T14:07:22;1.73;;;0.30;;
36445;SDS011;22472;50.848;-1.216;2022-09-20T14:12:19;0.65;;;0.30;;
36445;SDS011;22472;50.848;-1.216;2022-09-20T14:14:48;1.35;;;0.30;;
36445;SDS011;22472;50.848;-1.216;2022-09-20T14:17:16;2.00;;;0.30;;
36445;SDS011;22472;50.848;-1.216;2022-09-20T14:19:46;2.95;;;0.30;;
36445;SDS011;22472;50.848;-1.216;2022-09-20T14:22:17;1.77;;;0.30;;
36445;SDS011;22472;50.848;-1.216;2022-09-20T14:24:55;1.17;;;0.20;;
36445;SDS011;22472;50.848;-1.216;2022-09-20T14:27:26;0.98;;;0.30;;
36445;SDS011;22472;50.848;-1.216;2022-09-20T14:29:55;0.80;;;0.30;;
36445;SDS011;22472;50.848;-1.216;2022-09-20T14:32:24;0.90;;;0.30;;
36445;SDS011;22472;50.848;-1.216;2022-09-20T14:35:00;0.88;;;0.35;;
36445;SDS011;22472;50.848;-1.216;2022-09-20T14:37:32;0.63;;;0.30;;
36445;SDS011;22472;50.848;-1.216;2022-09-20T14:40:15;1.98;;;0.35;;
36445;SDS011;22472;50.848;-1.216;2022-09-20T14:42:48;2.15;;;0.40;;
36445;SDS011;22472;50.848;-1.216;2022-09-20T14:45:20;1.25;;;0.30;;
36445;SDS011;22472;50.848;-1.216;2022-09-20T14:47:51;0.90;;;0.32;;
36445;SDS011;22472;50.848;-1.216;2022-09-20T14:50:29;1.75;;;0.50;;
36445;SDS011;22472;50.848;-1.216;2022-09-20T14:53:02;1.17;;;0.30;;
36445;SDS011;22472;50.848;-1.216;2022-09-20T14:55:32;0.85;;;0.30;;
36445;SDS011;22472;50.848;-1.216;2022-09-20T14:58:03;1.65;;;0.40;;
36445;SDS011;22472;50.848;-1.216;2022-09-20T15:00:44;1.15;;;0.30;;
36445;SDS011;22472;50.848;-1.216;2022-09-20T15:03:14;1.38;;;0.30;;
36445;SDS011;22472;50.848;-1.216;2022-09-20T15:05:47;5.22;;;0.40;;
36445;SDS011;22472;50.848;-1.216;2022-09-20T15:08:17;2.95;;;0.30;;
36445;SDS011;22472;50.848;-1.216;2022-09-20T15:10:44;2.60;;;0.50;;
36445;SDS011;22472;50.848;-1.216;2022-09-20T15:13:12;1.30;;;0.40;;
36445;SDS011;22472;50.848;-1.216;2022-09-20T15:15:39;0.98;;;0.40;;
36445;SDS011;22472;50.848;-1.216;2022-09-20T15:18:11;0.98;;;0.32;;
36445;SDS011;22472;50.848;-1.216;2022-09-20T15:20:47;0.90;;;0.40;;
36445;SDS011;22472;50.848;-1.216;2022-09-20T15:23:17;1.13;;;0.30;;
36445;SDS011;22472;50.848;-1.216;2022-09-20T15:25:44;1.58;;;0.30;;
36445;SDS011;22472;50.848;-1.216;2022-09-20T15:30:42;0.98;;;0.30;;
36445;SDS011;22472;50.848;-1.216;2022-09-20T15:33:09;2.08;;;0.50;;
36445;SDS011;22472;50.848;-1.216;2022-09-20T15:35:37;1.30;;;0.30;;
36445;SDS011;22472;50.848;-1.216;2022-09-20T15:38:05;1.30;;;0.30;;
36445;SDS011;22472;50.848;-1.216;2022-09-20T15:40:36;2.47;;;0.38;;
36445;SDS011;22472;50.848;-1.216;2022-09-20T15:43:04;2.80;;;0.45;;
36445;SDS011;22472;50.848;-1.216;2022-09-20T15:45:33;0.68;;;0.30;;
36445;SDS011;22472;50.848;-1.216;2022-09-20T15:48:01;1.67;;;0.40;;
36445;SDS011;22472;50.848;-1.216;2022-09-20T15:50:28;1.48;;;0.30;;
36445;SDS011;22472;50.848;-1.216;2022-09-20T15:52:55;1.85;;;0.40;;
36445;SDS011;22472;50.848;-1.216;2022-09-20T15:55:22;2.63;;;0.35;;
36445;SDS011;22472;50.848;-1.216;2022-09-20T15:57:50;0.93;;;0.25;;
36445;SDS011;22472;50.848;-1.216;2022-09-20T16:00:17;1.00;;;0.30;;
36445;SDS011;22472;50.848;-1.216;2022-09-20T16:02:47;1.10;;;0.30;;
36445;SDS011;22472;50.848;-1.216;2022-09-20T16:05:15;2.35;;;0.30;;
36445;SDS011;22472;50.848;-1.216;2022-09-20T16:07:42;1.30;;;0.30;;
36445;SDS011;22472;50.848;-1.216;2022-09-20T16:10:10;0.75;;;0.30;;
36445;SDS011;22472;50.848;-1.216;2022-09-20T16:12:37;2.33;;;0.40;;
36445;SDS011;22472;50.848;-1.216;2022-09-20T16:15:06;1.58;;;0.57;;
36445;SDS011;22472;50.848;-1.216;2022-09-20T16:17:34;3.55;;;0.68;;
36445;SDS011;22472;50.848;-1.216;2022-09-20T16:20:18;1.15;;;0.45;;
36445;SDS011;22472;50.848;-1.216;2022-09-20T16:22:47;0.85;;;0.32;;
36445;SDS011;22472;50.848;-1.216;2022-09-20T16:25:14;2.22;;;0.50;;
36445;SDS011;22472;50.848;-1.216;2022-09-20T16:27:41;2.20;;;0.60;;
36445;SDS011;22472;50.848;-1.216;2022-09-20T16:30:10;1.27;;;0.60;;
36445;SDS011;22472;50.848;-1.216;2022-09-20T16:32:38;1.20;;;0.50;;
36445;SDS011;22472;50.848;-1.216;2022-09-20T16:35:06;1.63;;;0.65;;
36445;SDS011;22472;50.848;-1.216;2022-09-20T16:37:33;1.83;;;0.50;;
36445;SDS011;22472;50.848;-1.216;2022-09-20T16:40:01;1.42;;;0.68;;